Time;durP1;ratioP1;P1;durP2;ratioP2;P2;SDS_P1;SDS_P2;PMS_P1;PMS_P2;Temp;Humidity;BMP_temperature;BMP_pressure;BME280_temperature;BME280_humidity;BME280_pressure;Samples;Min_cycle;Max_cycle;Signal;HPM_P1;HPM_P2
2023/11/02 00:02:29;;;;;;;0.82;0.82;;;14.10;77.60;;;;;;5013056;28;20034;-75
2023/11/02 00:04:57;;;;;;;2.30;1.08;;;14.10;77.70;;;;;;5031687;28;20034;-75
2023/11/02 00:07:23;;;;;;;1.48;1.13;;;14.10;77.70;;;;;;5032920;28;20036;-75
2023/11/02 00:09:55;;;;;;;0.95;0.95;;;14.10;77.70;;;;;;5011159;28;20037;-76
2023/11/02 00:12:29;;;;;;;0.90;0.90;;;14.10;77.70;;;;;;5033238;28;20028;-75
2023/11/02 00:14:55;;;;;;;1.10;1.00;;;14.00;77.70;;;;;;5029886;28;20030;-75
2023/11/02 00:17:30;;;;;;;0.90;0.90;;;14.00;77.70;;;;;;5031036;28;20394;-75
2023/11/02 00:19:56;;;;;;;;;;;14.00;77.80;;;;;;5012858;28;20784;-75
2023/11/02 00:22:22;;;;;;;0.88;0.82;;;14.00;77.60;;;;;;5029130;28;19909;-75
2023/11/02 00:24:51;;;;;;;1.15;1.00;;;14.00;77.60;;;;;;5029975;28;20033;-75
2023/11/02 00:27:17;;;;;;;2.08;1.27;;;13.90;77.60;;;;;;5027726;28;20029;-75
2023/11/02 00:29:43;;;;;;;0.90;0.90;;;13.90;77.70;;;;;;5044866;28;20053;-75
2023/11/02 00:32:09;;;;;;;1.10;1.00;;;13.90;77.70;;;;;;5028884;28;20029;-75
2023/11/02 00:34:39;;;;;;;1.55;1.05;;;13.90;77.80;;;;;;5025649;28;20033;-76
2023/11/02 00:37:06;;;;;;;0.93;0.93;;;13.90;77.70;;;;;;5011298;28;20169;-77
2023/11/02 00:39:32;;;;;;;1.00;1.00;;;13.90;77.80;;;;;;5041706;28;20108;-75
2023/11/02 00:41:58;;;;;;;1.25;1.00;;;13.90;77.80;;;;;;5016694;28;20112;-75
2023/11/02 00:44:26;;;;;;;1.52;0.95;;;13.90;77.80;;;;;;5028534;28;20034;-75
2023/11/02 00:46:52;;;;;;;1.08;0.98;;;13.90;77.80;;;;;;5026755;28;20467;-76
2023/11/02 00:49:21;;;;;;;1.17;1.08;;;13.90;77.80;;;;;;5008511;28;20462;-76
2023/11/02 00:51:56;;;;;;;1.23;1.10;;;13.90;77.80;;;;;;5030302;28;20443;-75
2023/11/02 00:54:57;;;;;;;0.95;0.95;;;13.90;77.80;;;;;;5014582;28;20030;-75
2023/11/02 00:57:33;;;;;;;0.82;0.82;;;13.90;77.90;;;;;;5031684;28;20072;-75
2023/11/02 00:59:59;;;;;;;1.77;1.30;;;13.80;77.80;;;;;;5028081;28;20063;-76
2023/11/02 01:02:34;;;;;;;1.10;1.00;;;13.80;77.80;;;;;;5029677;28;20427;-76
2023/11/02 01:05:03;;;;;;;1.10;0.90;;;13.80;77.80;;;;;;5029721;28;20017;-75
2023/11/02 01:07:29;;;;;;;1.15;0.90;;;13.80;77.80;;;;;;5028548;28;20037;-76
2023/11/02 01:10:01;;;;;;;0.90;0.90;;;13.80;77.90;;;;;;5028613;28;20033;-74
2023/11/02 01:12:37;;;;;;;1.33;1.00;;;13.80;77.90;;;;;;5027050;28;20075;-76
2023/11/02 01:15:32;;;;;;;1.10;0.82;;;13.80;77.90;;;;;;5043446;28;20030;-75
2023/11/02 01:17:58;;;;;;;1.05;1.00;;;13.80;78.00;;;;;;5023220;28;20241;-75
2023/11/02 01:20:50;;;;;;;0.90;0.90;;;13.80;77.80;;;;;;5012308;28;20513;-75
2023/11/02 01:23:17;;;;;;;0.98;0.90;;;13.80;78.00;;;;;;5028915;28;20040;-75
2023/11/02 01:25:49;;;;;;;1.10;1.00;;;13.70;77.80;;;;;;5029460;28;20025;-75
2023/11/02 01:28:20;;;;;;;1.10;1.00;;;13.80;78.00;;;;;;5024654;28;20041;-76
2023/11/02 01:31:10;;;;;;;1.10;1.00;;;13.70;78.00;;;;;;5009970;28;20037;-74
2023/11/02 01:33:39;;;;;;;1.17;1.00;;;13.80;78.00;;;;;;5028173;28;20535;-74
2023/11/02 01:36:06;;;;;;;2.13;1.10;;;13.70;77.90;;;;;;5031100;28;20037;-75
2023/11/02 01:38:33;;;;;;;0.90;0.90;;;13.80;78.00;;;;;;5009371;28;20521;-75
2023/11/02 01:41:18;;;;;;;1.20;1.02;;;13.70;78.00;;;;;;5030786;28;20474;-74
2023/11/02 01:44:31;;;;;;;1.15;1.05;;;13.70;78.00;;;;;;5011718;28;20033;-75
2023/11/02 01:47:20;;;;;;;0.95;0.88;;;13.70;78.10;;;;;;5035650;28;20067;-77
2023/11/02 01:49:51;;;;;;;0.90;0.90;;;13.70;78.00;;;;;;5015649;28;20145;-75
2023/11/02 01:53:13;;;;;;;1.10;1.00;;;13.70;78.00;;;;;;5034947;28;20117;-75
2023/11/02 01:56:02;;;;;;;0.95;0.88;;;13.60;78.10;;;;;;4943814;28;20039;-75
2023/11/02 01:58:54;;;;;;;1.08;0.90;;;13.70;78.10;;;;;;5044097;28;20040;-74
2023/11/02 02:01:34;;;;;;;1.20;0.90;;;13.60;78.00;;;;;;5029167;28;20025;-75
2023/11/02 02:04:30;;;;;;;0.98;0.88;;;13.60;78.00;;;;;;5011082;28;20025;-75
2023/11/02 02:07:11;;;;;;;1.40;0.90;;;13.60;78.10;;;;;;5008844;28;20030;-75
2023/11/02 02:09:36;;;;;;;1.17;0.88;;;13.60;78.00;;;;;;5010294;28;20033;-74
2023/11/02 02:12:11;;;;;;;1.60;1.13;;;13.60;78.00;;;;;;5025936;28;20037;-75
2023/11/02 02:14:47;;;;;;;;;;;13.60;78.10;;;;;;5027273;28;20056;-75
2023/11/02 02:17:27;;;;;;;0.90;0.90;;;13.60;77.90;;;;;;5026112;28;19971;-75
2023/11/02 02:20:08;;;;;;;1.23;1.02;;;13.60;78.60;;;;;;5024066;28;20048;-75
2023/11/02 02:22:46;;;;;;;0.70;0.70;;;13.60;78.00;;;;;;5024994;28;20026;-75
2023/11/02 02:25:38;;;;;;;3.53;1.15;;;13.60;78.00;;;;;;5028156;28;20032;-75
2023/11/02 02:28:26;;;;;;;1.30;1.20;;;13.60;78.10;;;;;;5018868;28;20041;-75
2023/11/02 02:30:59;;;;;;;1.15;0.90;;;13.60;78.10;;;;;;5041978;28;20463;-77
2023/11/02 02:33:43;;;;;;;1.42;0.98;;;13.60;78.00;;;;;;5026301;28;20029;-75
2023/11/02 02:36:18;;;;;;;1.00;1.00;;;13.60;78.10;;;;;;5026587;28;20037;-74
2023/11/02 02:38:52;;;;;;;0.90;0.90;;;13.60;78.10;;;;;;5040808;28;20091;-75
2023/11/02 02:41:21;;;;;;;0.90;0.90;;;13.60;78.10;;;;;;5025084;28;20025;-75
2023/11/02 02:43:58;;;;;;;1.38;0.98;;;13.60;78.00;;;;;;5028097;28;20111;-75
2023/11/02 02:46:24;;;;;;;0.90;0.90;;;13.60;78.10;;;;;;5028232;28;20037;-77
2023/11/02 02:48:49;;;;;;;1.33;1.10;;;13.60;78.00;;;;;;5010768;28;20032;-77
2023/11/02 02:51:17;;;;;;;1.35;1.15;;;13.60;78.10;;;;;;5026342;28;20029;-74
2023/11/02 02:53:44;;;;;;;0.85;0.80;;;13.60;78.10;;;;;;5027398;28;20386;-74
2023/11/02 02:56:13;;;;;;;1.13;1.00;;;13.60;78.10;;;;;;5010250;28;20048;-75
2023/11/02 02:59:03;;;;;;;0.90;0.90;;;13.60;78.10;;;;;;5026815;28;20025;-75
2023/11/02 03:01:35;;;;;;;0.90;0.90;;;13.60;78.20;;;;;;5023294;28;20218;-74
2023/11/02 03:04:02;;;;;;;0.90;0.90;;;13.60;78.10;;;;;;5027345;28;20082;-75
2023/11/02 03:06:29;;;;;;;0.90;0.90;;;13.60;78.00;;;;;;5028700;28;20454;-75
2023/11/02 03:08:58;;;;;;;1.02;0.80;;;13.60;78.10;;;;;;5041969;28;20033;-75
2023/11/02 03:11:26;;;;;;;1.15;0.95;;;13.60;78.10;;;;;;5023639;28;20017;-74
2023/11/02 03:13:55;;;;;;;1.30;0.93;;;13.60;78.10;;;;;;5007536;28;20121;-75
2023/11/02 03:16:23;;;;;;;0.82;0.80;;;13.50;78.10;;;;;;5024749;28;20612;-75
2023/11/02 03:18:49;;;;;;;1.02;0.93;;;13.50;78.00;;;;;;5027321;28;20111;-74
2023/11/02 03:21:15;;;;;;;1.90;1.17;;;13.60;78.00;;;;;;5023694;28;20103;-74
2023/11/02 03:24:10;;;;;;;2.05;1.10;;;13.60;78.00;;;;;;5027712;28;20057;-74
2023/11/02 03:26:57;;;;;;;2.28;1.20;;;13.60;78.10;;;;;;5026440;28;20045;-75
2023/11/02 03:29:43;;;;;;;1.10;1.02;;;13.60;78.00;;;;;;5024139;28;20042;-74
2023/11/02 03:32:25;;;;;;;0.80;0.80;;;13.50;78.00;;;;;;5026049;28;20033;-75
2023/11/02 03:35:17;;;;;;;1.60;0.90;;;13.50;78.00;;;;;;5026869;28;20125;-75
2023/11/02 03:38:08;;;;;;;1.00;1.00;;;13.50;78.00;;;;;;5026791;28;20037;-77
2023/11/02 03:40:59;;;;;;;1.10;0.90;;;13.60;78.00;;;;;;5022903;28;20401;-76
2023/11/02 03:43:29;;;;;;;1.08;0.90;;;13.50;78.00;;;;;;5026886;28;20091;-76
2023/11/02 03:46:07;;;;;;;0.82;0.82;;;13.50;78.00;;;;;;5027874;28;20115;-74
2023/11/02 03:48:55;;;;;;;1.20;0.95;;;13.50;78.00;;;;;;5033634;28;20469;-77
2023/11/02 03:51:44;;;;;;;1.17;1.05;;;13.50;78.00;;;;;;5026504;28;20064;-74
2023/11/02 03:54:29;;;;;;;1.80;1.10;;;13.50;78.00;;;;;;5025459;28;20035;-76
2023/11/02 03:57:08;;;;;;;1.48;0.90;;;13.50;78.00;;;;;;5027845;28;20120;-77
2023/11/02 03:59:47;;;;;;;0.95;0.85;;;13.50;78.00;;;;;;5008099;28;20033;-77
2023/11/02 04:02:31;;;;;;;1.08;1.02;;;13.50;78.00;;;;;;5028670;28;20053;-77
2023/11/02 04:05:01;;;;;;;1.00;0.98;;;13.60;78.10;;;;;;5025670;28;20029;-77
2023/11/02 04:07:56;;;;;;;1.00;0.88;;;13.60;78.00;;;;;;5026846;28;20026;-77
2023/11/02 04:10:27;;;;;;;0.82;0.80;;;13.50;78.00;;;;;;5028472;28;20021;-77
2023/11/02 04:13:29;;;;;;;1.08;0.80;;;13.60;77.90;;;;;;5026074;28;20022;-78
2023/11/02 04:15:54;;;;;;;0.80;0.80;;;13.60;78.00;;;;;;5014587;28;20419;-78
2023/11/02 04:18:20;;;;;;;0.80;0.80;;;13.60;77.90;;;;;;5030138;28;20030;-77
2023/11/02 04:20:51;;;;;;;1.63;1.17;;;13.60;77.90;;;;;;5027348;28;20061;-74
2023/11/02 04:23:19;;;;;;;1.38;0.80;;;13.60;77.90;;;;;;5025642;28;20537;-77
2023/11/02 04:25:45;;;;;;;0.70;0.70;;;13.60;77.90;;;;;;5025888;28;20041;-77
2023/11/02 04:28:11;;;;;;;0.90;0.90;;;13.60;77.90;;;;;;4995057;28;20416;-77
2023/11/02 04:30:37;;;;;;;1.00;0.90;;;13.60;77.90;;;;;;5012168;28;20030;-78
2023/11/02 04:33:03;;;;;;;1.27;0.90;;;13.60;77.80;;;;;;5027544;28;20044;-77
2023/11/02 04:35:29;;;;;;;1.45;1.00;;;13.60;77.90;;;;;;5024401;28;20034;-77
2023/11/02 04:38:03;;;;;;;0.93;0.80;;;13.60;77.80;;;;;;5027067;28;20033;-77
2023/11/02 04:40:28;;;;;;;1.60;0.90;;;13.60;77.90;;;;;;5027822;28;20033;-77
2023/11/02 04:42:54;;;;;;;1.55;0.98;;;13.60;77.80;;;;;;5021234;28;20105;-77
2023/11/02 04:45:20;;;;;;;1.20;1.00;;;13.60;77.80;;;;;;5030425;28;20029;-77
2023/11/02 04:47:46;;;;;;;1.55;1.10;;;13.60;77.80;;;;;;5029080;28;20037;-79
2023/11/02 04:50:12;;;;;;;1.25;1.00;;;13.60;77.80;;;;;;5045150;28;20498;-77
2023/11/02 04:52:38;;;;;;;2.88;1.20;;;13.60;77.80;;;;;;5026777;28;20037;-77
2023/11/02 04:55:05;;;;;;;1.60;0.90;;;13.60;77.80;;;;;;5011876;28;20028;-77
2023/11/02 04:57:32;;;;;;;1.33;0.98;;;13.60;77.70;;;;;;5030041;28;20090;-77
2023/11/02 05:00:03;;;;;;;1.15;1.05;;;13.70;77.70;;;;;;5041867;28;20038;-76
2023/11/02 05:02:30;;;;;;;1.25;0.80;;;13.70;77.70;;;;;;5015973;28;20464;-76
2023/11/02 05:04:56;;;;;;;1.60;1.10;;;13.60;77.70;;;;;;4996573;28;20120;-77
2023/11/02 05:07:22;;;;;;;1.13;1.00;;;13.60;77.60;;;;;;5031218;28;20508;-77
2023/11/02 05:09:48;;;;;;;1.70;1.08;;;13.60;77.60;;;;;;5027647;28;20034;-77
2023/11/02 05:12:14;;;;;;;1.33;1.10;;;13.70;77.60;;;;;;5011516;28;20041;-77
2023/11/02 05:14:39;;;;;;;2.83;1.00;;;13.60;77.60;;;;;;5012566;28;20034;-77
2023/11/02 05:17:05;;;;;;;1.77;0.90;;;13.70;77.70;;;;;;5044384;28;20084;-77
2023/11/02 05:19:31;;;;;;;2.28;0.93;;;13.70;77.70;;;;;;5028396;28;20068;-78
2023/11/02 05:21:57;;;;;;;0.90;0.90;;;13.70;77.60;;;;;;5029410;28;20045;-77
2023/11/02 05:24:22;;;;;;;0.80;0.80;;;13.70;77.50;;;;;;4995333;28;20057;-77
2023/11/02 05:26:48;;;;;;;1.23;1.00;;;13.70;77.50;;;;;;5029665;28;20025;-77
2023/11/02 05:29:14;;;;;;;1.35;1.13;;;13.70;77.50;;;;;;5026218;28;20466;-77
2023/11/02 05:31:39;;;;;;;1.20;1.10;;;13.70;77.50;;;;;;5010952;28;20033;-77
2023/11/02 05:34:05;;;;;;;1.38;1.10;;;13.70;77.50;;;;;;5000792;28;20048;-79
2023/11/02 05:36:31;;;;;;;1.27;1.10;;;13.70;77.50;;;;;;4994229;28;20069;-76
2023/11/02 05:38:56;;;;;;;1.10;1.00;;;13.70;77.40;;;;;;4997988;28;20038;-77
2023/11/02 05:41:22;;;;;;;0.95;0.95;;;13.70;77.40;;;;;;5000129;28;20029;-78
2023/11/02 05:43:48;;;;;;;1.55;1.17;;;13.70;78.00;;;;;;5027703;28;20116;-74
2023/11/02 05:46:14;;;;;;;1.00;0.90;;;13.70;77.30;;;;;;5026894;28;20057;-77
2023/11/02 05:48:39;;;;;;;1.75;1.00;;;13.80;77.40;;;;;;5029190;28;20049;-77
2023/11/02 05:51:06;;;;;;;1.20;1.10;;;13.70;77.40;;;;;;5026814;28;20033;-76
2023/11/02 05:53:31;;;;;;;1.02;0.93;;;13.80;77.40;;;;;;5033652;28;20072;-76
2023/11/02 05:55:57;;;;;;;1.10;1.00;;;13.70;77.30;;;;;;5033120;28;20038;-76
2023/11/02 05:58:23;;;;;;;0.95;0.90;;;13.80;77.30;;;;;;5018478;28;20124;-78
2023/11/02 06:00:48;;;;;;;1.10;1.00;;;13.80;77.30;;;;;;5016221;28;20470;-76
2023/11/02 06:03:14;;;;;;;1.10;1.00;;;13.80;77.30;;;;;;5019751;28;20033;-76
2023/11/02 06:05:40;;;;;;;1.60;0.90;;;13.80;77.40;;;;;;5015681;28;20034;-76
2023/11/02 06:08:06;;;;;;;1.35;1.20;;;13.80;77.40;;;;;;5014967;28;20820;-76
2023/11/02 06:10:32;;;;;;;2.00;1.08;;;13.80;77.30;;;;;;5039747;28;20037;-77
2023/11/02 06:12:58;;;;;;;1.63;1.05;;;13.80;77.30;;;;;;4994353;28;20034;-78
2023/11/02 06:15:24;;;;;;;1.25;1.10;;;13.80;77.40;;;;;;4991983;28;20040;-77
2023/11/02 06:17:49;;;;;;;1.90;0.90;;;13.80;77.30;;;;;;5025139;28;20026;-77
2023/11/02 06:20:15;;;;;;;1.35;1.00;;;13.80;77.30;;;;;;5028885;28;20050;-76
2023/11/02 06:22:41;;;;;;;1.35;1.05;;;13.80;77.30;;;;;;5024437;28;20037;-77
2023/11/02 06:25:08;;;;;;;1.42;0.90;;;13.80;77.20;;;;;;4993723;28;20106;-76
2023/11/02 06:27:34;;;;;;;0.90;0.90;;;13.80;77.20;;;;;;5022694;28;20460;-77
2023/11/02 06:29:59;;;;;;;1.15;1.05;;;13.80;77.20;;;;;;5010147;28;20159;-77
2023/11/02 06:32:25;;;;;;;1.25;0.88;;;13.80;77.20;;;;;;5026211;28;20109;-77
2023/11/02 06:34:51;;;;;;;1.13;1.02;;;13.80;77.20;;;;;;5029259;28;20056;-78
2023/11/02 06:37:19;;;;;;;1.20;1.10;;;13.80;77.20;;;;;;5029994;28;20061;-77
2023/11/02 06:39:45;;;;;;;0.90;0.90;;;13.80;77.10;;;;;;5020757;28;20045;-77
2023/11/02 06:42:12;;;;;;;1.10;1.00;;;13.80;77.10;;;;;;5036613;28;20470;-76
2023/11/02 06:44:43;;;;;;;1.23;1.00;;;13.80;77.10;;;;;;5037488;28;20029;-77
2023/11/02 06:47:13;;;;;;;1.35;1.10;;;13.80;77.10;;;;;;5036873;28;20041;-77
2023/11/02 06:49:38;;;;;;;1.20;1.08;;;13.90;77.20;;;;;;5032480;28;20022;-77
2023/11/02 06:52:05;;;;;;;2.97;1.10;;;13.80;77.10;;;;;;5011386;28;20482;-77
2023/11/02 06:54:31;;;;;;;1.10;1.00;;;13.90;77.10;;;;;;4983481;28;20025;-76
2023/11/02 06:56:57;;;;;;;1.10;1.00;;;13.90;77.10;;;;;;5040641;28;20037;-76
2023/11/02 06:59:23;;;;;;;1.25;1.15;;;13.90;77.20;;;;;;5036249;28;20029;-76
2023/11/02 07:01:50;;;;;;;1.00;0.90;;;13.90;77.20;;;;;;5022338;28;20116;-76
2023/11/02 07:04:20;;;;;;;0.98;0.80;;;13.90;77.10;;;;;;5034862;28;20088;-77
2023/11/02 07:06:46;;;;;;;1.10;1.00;;;13.90;77.10;;;;;;5033505;28;20091;-77
2023/11/02 07:09:14;;;;;;;1.13;0.90;;;13.90;77.10;;;;;;5032249;28;20040;-77
2023/11/02 07:11:40;;;;;;;0.90;0.90;;;13.90;77.10;;;;;;5023157;28;20025;-77
2023/11/02 07:14:06;;;;;;;1.00;1.00;;;13.90;77.10;;;;;;5047527;28;20033;-76
2023/11/02 07:16:32;;;;;;;1.17;1.00;;;13.90;77.10;;;;;;5022189;28;20096;-77
2023/11/02 07:19:00;;;;;;;1.08;0.98;;;13.90;77.10;;;;;;5032872;28;20030;-76
2023/11/02 07:21:26;;;;;;;1.10;1.00;;;13.90;77.20;;;;;;5001453;28;20486;-78
2023/11/02 07:23:52;;;;;;;0.90;0.90;;;13.90;77.20;;;;;;5045502;28;20036;-76
2023/11/02 07:26:17;;;;;;;0.82;0.82;;;13.90;77.10;;;;;;5037056;28;20033;-76
2023/11/02 07:28:44;;;;;;;1.40;1.00;;;13.90;77.20;;;;;;5018656;28;20037;-77
2023/11/02 07:31:10;;;;;;;1.63;0.90;;;13.90;77.20;;;;;;5030730;28;20030;-78
2023/11/02 07:33:40;;;;;;;0.70;0.70;;;13.90;77.80;;;;;;5018698;28;20036;-77
2023/11/02 07:36:14;;;;;;;1.00;0.90;;;13.90;77.20;;;;;;5025081;28;20045;-76
2023/11/02 07:38:40;;;;;;;1.07;0.97;;;13.90;77.30;;;;;;5023718;28;20389;-77
2023/11/02 07:41:09;;;;;;;0.90;0.90;;;13.90;77.20;;;;;;5031246;28;20079;-77
2023/11/02 07:43:35;;;;;;;0.90;0.80;;;13.90;77.20;;;;;;5036474;28;20121;-77
2023/11/02 07:46:01;;;;;;;1.02;0.98;;;13.90;77.20;;;;;;5018055;28;20034;-77
2023/11/02 07:48:26;;;;;;;1.23;1.02;;;13.90;77.80;;;;;;5024949;28;20437;-77
2023/11/02 07:50:52;;;;;;;1.05;0.90;;;13.90;77.10;;;;;;5003250;28;20382;-77
2023/11/02 07:53:19;;;;;;;1.60;1.10;;;13.90;77.20;;;;;;5039085;28;20037;-77
2023/11/02 07:55:45;;;;;;;1.38;1.00;;;13.90;77.20;;;;;;5022269;28;20036;-77
2023/11/02 07:58:11;;;;;;;1.63;0.90;;;14.00;77.30;;;;;;5007064;28;20361;-77
2023/11/02 08:00:37;;;;;;;0.98;0.90;;;14.00;77.20;;;;;;5038412;28;20018;-76
2023/11/02 08:03:03;;;;;;;1.42;1.00;;;14.00;77.30;;;;;;5036930;28;20108;-77
2023/11/02 08:05:29;;;;;;;1.20;1.02;;;13.90;77.20;;;;;;5033652;28;20033;-77
2023/11/02 08:07:55;;;;;;;1.95;1.00;;;13.90;77.30;;;;;;5037020;28;20033;-77
2023/11/02 08:10:21;;;;;;;0.90;0.90;;;14.00;77.30;;;;;;5048627;28;20013;-77
2023/11/02 08:12:46;;;;;;;1.13;1.00;;;14.00;77.30;;;;;;5034305;28;20493;-77
2023/11/02 08:15:12;;;;;;;1.35;1.08;;;14.00;77.30;;;;;;5009815;28;20087;-76
2023/11/02 08:17:40;;;;;;;1.10;1.10;;;14.00;77.30;;;;;;5040528;28;20036;-76
2023/11/02 08:20:07;;;;;;;0.90;0.90;;;14.00;77.30;;;;;;5038332;28;20041;-76
2023/11/02 08:22:33;;;;;;;0.90;0.85;;;14.00;77.30;;;;;;5023753;28;21613;-76
2023/11/02 08:24:58;;;;;;;1.05;1.05;;;14.00;77.40;;;;;;5044380;28;20407;-76
2023/11/02 08:27:28;;;;;;;1.52;1.08;;;14.00;77.40;;;;;;5027298;28;20025;-76
2023/11/02 08:29:54;;;;;;;1.23;0.98;;;14.00;77.50;;;;;;5012408;28;20042;-74
2023/11/02 08:32:21;;;;;;;1.35;0.90;;;14.00;77.50;;;;;;5040480;28;20020;-76
2023/11/02 08:34:46;;;;;;;1.55;1.00;;;14.00;77.50;;;;;;5026796;28;20022;-77
2023/11/02 08:37:12;;;;;;;1.17;1.00;;;14.00;77.50;;;;;;5034243;28;20040;-77
2023/11/02 08:39:41;;;;;;;1.73;1.15;;;14.10;77.60;;;;;;5041130;28;20021;-76
2023/11/02 08:42:07;;;;;;;0.90;0.90;;;14.10;77.60;;;;;;5001158;28;20048;-76
2023/11/02 08:44:32;;;;;;;1.92;1.00;;;14.10;77.50;;;;;;5039631;28;20021;-76
2023/11/02 08:46:58;;;;;;;1.48;1.20;;;14.10;77.50;;;;;;5036986;28;20037;-74
2023/11/02 08:49:24;;;;;;;1.65;1.10;;;14.10;77.50;;;;;;5043069;28;20487;-76
2023/11/02 08:51:50;;;;;;;0.82;0.80;;;14.10;77.50;;;;;;5041970;28;20028;-75
2023/11/02 08:54:16;;;;;;;1.25;1.00;;;14.20;77.60;;;;;;5039786;28;20029;-79
2023/11/02 08:56:42;;;;;;;2.03;1.20;;;14.20;77.60;;;;;;5037216;28;20132;-76
2023/11/02 08:59:08;;;;;;;1.60;1.20;;;14.20;77.50;;;;;;5023476;28;20452;-76
2023/11/02 09:01:34;;;;;;;0.98;0.88;;;14.30;77.50;;;;;;5020691;28;20037;-77
2023/11/02 09:04:00;;;;;;;0.90;0.90;;;14.30;77.50;;;;;;5035192;28;20040;-76
2023/11/02 09:06:26;;;;;;;1.75;1.13;;;14.30;77.50;;;;;;5018525;28;20038;-77
2023/11/02 09:08:56;;;;;;;0.95;0.85;;;14.30;77.50;;;;;;5015270;28;20029;-76
2023/11/02 09:11:23;;;;;;;0.80;0.80;;;14.30;77.50;;;;;;5037707;28;20030;-76
2023/11/02 09:13:48;;;;;;;2.60;1.10;;;14.30;77.40;;;;;;5045008;28;20033;-76
2023/11/02 09:16:14;;;;;;;2.33;1.20;;;14.40;77.40;;;;;;5041701;28;20033;-76
2023/11/02 09:18:40;;;;;;;0.93;0.90;;;14.40;77.40;;;;;;5028029;28;20026;-74
2023/11/02 09:21:07;;;;;;;0.80;0.80;;;14.40;77.30;;;;;;5020952;28;20057;-76
2023/11/02 09:23:34;;;;;;;1.17;0.90;;;14.40;77.30;;;;;;5016661;28;20029;-77
2023/11/02 09:26:02;;;;;;;1.33;0.90;;;14.40;77.30;;;;;;5040219;28;20064;-76
2023/11/02 09:28:28;;;;;;;1.00;0.95;;;14.50;77.40;;;;;;5027846;28;20017;-78
2023/11/02 09:30:53;;;;;;;0.70;0.70;;;14.50;77.30;;;;;;5048880;28;20104;-76
2023/11/02 09:33:19;;;;;;;1.00;0.90;;;14.50;77.30;;;;;;5054561;28;20068;-76
2023/11/02 09:35:45;;;;;;;0.90;0.90;;;14.50;77.30;;;;;;5041541;28;20045;-76
2023/11/02 09:38:13;;;;;;;1.42;0.90;;;14.50;77.30;;;;;;5027702;28;20020;-76
2023/11/02 09:40:40;;;;;;;1.70;0.90;;;14.60;77.30;;;;;;5037806;28;20493;-76
2023/11/02 09:43:06;;;;;;;1.05;0.85;;;14.50;77.20;;;;;;5009392;28;20120;-76
2023/11/02 09:45:32;;;;;;;1.05;0.90;;;14.50;77.30;;;;;;5034800;28;20160;-77
2023/11/02 09:48:01;;;;;;;1.23;1.00;;;14.50;77.20;;;;;;5017364;28;20122;-76
2023/11/02 09:50:28;;;;;;;1.00;0.82;;;14.60;77.30;;;;;;5037508;28;20500;-76
2023/11/02 09:52:55;;;;;;;1.35;1.08;;;14.60;77.20;;;;;;5039224;28;20518;-76
2023/11/02 09:55:22;;;;;;;1.88;0.90;;;14.60;77.30;;;;;;5017646;28;20025;-76
2023/11/02 09:57:49;;;;;;;0.95;0.85;;;14.60;77.20;;;;;;5015514;28;20052;-76
2023/11/02 10:00:17;;;;;;;0.80;0.80;;;14.60;77.20;;;;;;5041746;28;20402;-76
2023/11/02 10:02:50;;;;;;;2.00;1.02;;;14.70;77.30;;;;;;5042297;28;20063;-76
2023/11/02 10:05:17;;;;;;;1.05;0.88;;;14.70;77.30;;;;;;5031299;28;20047;-76
2023/11/02 10:07:43;;;;;;;0.88;0.88;;;14.70;77.20;;;;;;5045124;28;20041;-76
2023/11/02 10:10:10;;;;;;;0.80;0.80;;;14.70;77.20;;;;;;5037376;28;20021;-76
2023/11/02 10:12:37;;;;;;;2.50;0.93;;;14.70;77.20;;;;;;5048240;28;20037;-76
2023/11/02 10:15:04;;;;;;;1.17;1.00;;;14.70;77.20;;;;;;5036047;28;20029;-76
2023/11/02 10:17:37;;;;;;;1.15;0.90;;;14.80;77.20;;;;;;5007320;28;20053;-77
2023/11/02 10:20:14;;;;;;;2.47;1.20;;;14.80;77.20;;;;;;5047917;28;20041;-76
2023/11/02 10:22:42;;;;;;;1.48;1.02;;;14.80;77.20;;;;;;5031643;28;20367;-76
2023/11/02 10:25:14;;;;;;;1.77;0.90;;;14.80;77.10;;;;;;5040487;28;20033;-76
2023/11/02 10:27:44;;;;;;;2.10;0.90;;;14.90;77.10;;;;;;5023626;28;20124;-76
2023/11/02 10:30:11;;;;;;;1.38;1.02;;;14.90;77.10;;;;;;5040043;28;20111;-74
2023/11/02 10:32:37;;;;;;;1.38;1.00;;;14.90;77.00;;;;;;5028404;28;20106;-74
2023/11/02 10:35:04;;;;;;;1.92;1.00;;;14.90;77.00;;;;;;5014982;28;20037;-76
2023/11/02 10:37:31;;;;;;;1.33;0.82;;;15.00;77.00;;;;;;5040180;28;20644;-76
2023/11/02 10:39:58;;;;;;;1.00;0.82;;;15.00;77.00;;;;;;5037079;28;20065;-76
2023/11/02 10:42:28;;;;;;;0.98;0.93;;;15.00;76.90;;;;;;5015734;28;20405;-77
2023/11/02 10:44:56;;;;;;;1.60;0.90;;;15.00;77.60;;;;;;5032582;28;20036;-76
2023/11/02 10:47:30;;;;;;;0.80;0.77;;;15.00;76.90;;;;;;5018611;28;20474;-76
2023/11/02 10:49:58;;;;;;;3.22;1.00;;;15.10;76.90;;;;;;5031559;28;20073;-76
2023/11/02 10:52:38;;;;;;;1.20;0.90;;;15.10;76.80;;;;;;5032000;28;20077;-76
2023/11/02 10:55:26;;;;;;;2.40;1.00;;;15.10;76.80;;;;;;5043735;28;20032;-76
2023/11/02 10:57:53;;;;;;;0.65;0.65;;;15.10;77.40;;;;;;5034424;28;20371;-76
2023/11/02 11:00:22;;;;;;;1.58;0.80;;;15.20;76.60;;;;;;5033856;28;20013;-76
2023/11/02 11:02:50;;;;;;;1.27;0.80;;;15.20;76.60;;;;;;5035986;28;20038;-77
2023/11/02 11:05:18;;;;;;;2.22;1.00;;;15.20;76.60;;;;;;5020614;28;20490;-74
2023/11/02 11:07:44;;;;;;;1.33;0.80;;;15.30;76.60;;;;;;5017662;28;20432;-75
2023/11/02 11:10:13;;;;;;;1.92;1.00;;;15.30;76.60;;;;;;5036928;28;20025;-74
2023/11/02 11:12:40;;;;;;;1.95;0.90;;;15.30;76.50;;;;;;5016613;28;20091;-76
2023/11/02 11:15:12;;;;;;;1.67;0.90;;;15.30;76.50;;;;;;5036103;28;20038;-76
2023/11/02 11:17:44;;;;;;;0.98;0.80;;;15.40;76.50;;;;;;5034995;28;20033;-77
2023/11/02 11:20:12;;;;;;;2.15;1.00;;;15.40;76.50;;;;;;5038729;28;20068;-76
2023/11/02 11:22:40;;;;;;;1.40;0.88;;;15.40;76.50;;;;;;5012274;28;20478;-77
2023/11/02 11:25:06;;;;;;;2.15;0.85;;;15.40;76.50;;;;;;5035739;28;20382;-76
2023/11/02 11:27:35;;;;;;;3.28;1.10;;;15.50;76.50;;;;;;5037034;28;20039;-75
2023/11/02 11:30:03;;;;;;;3.03;0.95;;;15.50;76.50;;;;;;5035765;28;20037;-77
2023/11/02 11:32:35;;;;;;;2.42;0.88;;;15.50;76.50;;;;;;5021703;28;20074;-76
2023/11/02 11:35:09;;;;;;;1.23;1.00;;;15.50;76.50;;;;;;5035471;28;20033;-76
2023/11/02 11:38:20;;;;;;;1.38;0.98;;;15.60;76.50;;;;;;5032592;28;20037;-76
2023/11/02 11:40:29;;;;;;;3.00;1.25;;;15.60;76.40;;;;;;5027737;28;20041;-77
2023/11/02 11:43:06;;;;;;;1.73;1.10;;;15.60;76.40;;;;;;5035162;28;20069;-74
2023/11/02 11:45:36;;;;;;;1.55;0.90;;;15.70;76.50;;;;;;5040513;28;20025;-76
2023/11/02 11:48:05;;;;;;;1.83;1.05;;;15.70;76.50;;;;;;5041849;28;20086;-76
2023/11/02 11:50:47;;;;;;;1.75;0.88;;;15.70;76.40;;;;;;5022143;28;20022;-76
2023/11/02 11:53:20;;;;;;;1.63;0.73;;;15.70;76.40;;;;;;5038964;28;20033;-76
2023/11/02 11:55:48;;;;;;;2.22;1.10;;;15.80;76.40;;;;;;5040274;28;20105;-76
2023/11/02 11:58:15;;;;;;;1.50;0.95;;;15.80;76.30;;;;;;5041735;28;20035;-76
2023/11/02 12:00:53;;;;;;;1.55;0.88;;;15.80;76.30;;;;;;5039104;28;20021;-76
2023/11/02 12:03:34;;;;;;;1.45;1.00;;;15.80;76.30;;;;;;5032497;28;20127;-74
2023/11/02 12:06:04;;;;;;;2.75;1.08;;;15.90;76.40;;;;;;5043125;28;20038;-76
2023/11/02 12:08:31;;;;;;;1.27;0.90;;;15.90;76.30;;;;;;5043980;28;20083;-73
2023/11/02 12:10:58;;;;;;;1.77;1.05;;;15.90;76.30;;;;;;5021360;28;20444;-76
2023/11/02 12:13:27;;;;;;;1.33;0.93;;;16.00;76.30;;;;;;5043074;28;20033;-77
2023/11/02 12:15:54;;;;;;;1.15;0.70;;;16.00;76.30;;;;;;5031642;28;20473;-76
2023/11/02 12:18:25;;;;;;;2.40;1.10;;;16.00;76.30;;;;;;5047043;28;20079;-74
2023/11/02 12:20:50;;;;;;;1.02;0.90;;;16.00;76.30;;;;;;5032313;28;20053;-77
2023/11/02 12:23:16;;;;;;;3.00;0.90;;;16.10;76.30;;;;;;5021417;28;20389;-77
2023/11/02 12:25:42;;;;;;;1.67;1.00;;;16.00;76.20;;;;;;5016606;28;20034;-77
2023/11/02 12:28:11;;;;;;;2.60;0.90;;;16.10;76.20;;;;;;5034098;28;20021;-76
2023/11/02 12:30:44;;;;;;;3.15;1.13;;;16.10;76.20;;;;;;5033595;28;20025;-76
2023/11/02 12:33:18;;;;;;;0.68;0.68;;;16.10;76.20;;;;;;5038703;28;20508;-76
2023/11/02 12:35:49;;;;;;;2.03;0.98;;;16.20;76.10;;;;;;5020580;28;20457;-77
2023/11/02 12:38:38;;;;;;;2.08;1.08;;;16.20;76.10;;;;;;5035903;28;20477;-76
2023/11/02 12:41:04;;;;;;;1.92;1.00;;;16.20;76.00;;;;;;5035354;28;20072;-76
2023/11/02 12:43:39;;;;;;;1.50;0.88;;;16.20;76.00;;;;;;5035522;28;20501;-77
2023/11/02 12:46:11;;;;;;;;;;;16.30;76.00;;;;;;5028839;28;20037;-77
2023/11/02 12:48:40;;;;;;;1.17;0.80;;;16.20;76.00;;;;;;5039639;28;19913;-77
2023/11/02 12:51:16;;;;;;;0.95;0.88;;;16.20;75.90;;;;;;5013509;28;20029;-77
2023/11/02 12:53:43;;;;;;;1.60;0.90;;;16.30;76.10;;;;;;5045370;28;20432;-76
2023/11/02 12:56:12;;;;;;;1.65;0.85;;;16.30;76.10;;;;;;5045172;28;20037;-76
2023/11/02 12:58:39;;;;;;;1.15;0.80;;;16.30;76.10;;;;;;5040478;28;20034;-76
2023/11/02 13:01:04;;;;;;;1.08;0.82;;;16.30;76.10;;;;;;5036303;28;20128;-77
2023/11/02 13:03:31;;;;;;;1.70;1.00;;;16.30;76.10;;;;;;5026693;28;20120;-76
2023/11/02 13:05:56;;;;;;;1.48;0.90;;;16.40;76.20;;;;;;5011163;28;20033;-77